createdAt,value
2017-08-15T00:00:27.663Z,0
2017-08-15T00:01:38.025Z,0
2017-08-15T00:02:48.381Z,0
2017-08-15T00:03:58.714Z,0
2017-08-15T00:05:09.097Z,0
2017-08-15T00:06:19.142Z,0
2017-08-15T00:07:29.490Z,0
2017-08-15T00:08:39.851Z,0
2017-08-15T00:09:49.875Z,0
2017-08-15T00:10:59.970Z,0
2017-08-15T00:12:10.005Z,0
2017-08-15T00:13:20.341Z,0
2017-08-15T00:14:30.689Z,0
2017-08-15T00:15:41.025Z,0
2017-08-15T00:16:51.417Z,0
2017-08-15T00:18:01.136Z,0
2017-08-15T00:19:11.481Z,0
2017-08-15T00:20:21.523Z,0
2017-08-15T00:21:31.261Z,0
2017-08-15T00:22:41.338Z,0
2017-08-15T00:23:51.677Z,0
2017-08-15T00:25:02.024Z,0
2017-08-15T00:26:12.384Z,0
2017-08-15T00:27:22.414Z,0
2017-08-15T00:28:32.509Z,0
2017-08-15T00:29:42.869Z,0
2017-08-15T00:30:53.233Z,0
2017-08-15T00:32:04.470Z,0
2017-08-15T00:33:14.505Z,0
2017-08-15T00:34:24.902Z,0
2017-08-15T00:35:35.261Z,0
2017-08-15T00:36:45.282Z,0
2017-08-15T00:37:55.311Z,0
2017-08-15T00:39:05.660Z,0
2017-08-15T00:40:16.061Z,0
2017-08-15T00:41:26.428Z,0
2017-08-15T00:42:36.772Z,0
2017-08-15T00:43:47.102Z,0
2017-08-15T00:44:57.453Z,0
2017-08-15T00:46:07.865Z,0
2017-08-15T00:47:17.587Z,0
2017-08-15T00:48:27.612Z,0
2017-08-15T00:49:37.654Z,0
2017-08-15T00:50:50.055Z,0
2017-08-15T00:52:00.456Z,0
2017-08-15T00:53:10.825Z,0
2017-08-15T00:54:21.179Z,0
2017-08-15T00:55:33.681Z,0
2017-08-15T00:56:43.716Z,0
2017-08-15T00:57:54.138Z,0
2017-08-15T00:59:04.517Z,0
2017-08-15T01:00:14.853Z,0
2017-08-15T01:01:24.570Z,0
2017-08-15T01:02:34.607Z,0
2017-08-15T01:03:45.010Z,0
2017-08-15T01:04:55.343Z,0
2017-08-15T01:06:05.392Z,0
2017-08-15T01:07:15.744Z,0
2017-08-15T01:08:26.093Z,0
2017-08-15T01:09:36.490Z,0
2017-08-15T01:10:46.837Z,0
2017-08-15T01:11:57.180Z,0
2017-08-15T01:13:07.520Z,0
2017-08-15T01:14:17.865Z,0
2017-08-15T01:15:27.313Z,0
2017-08-15T01:16:37.669Z,0
2017-08-15T01:17:48.013Z,0
2017-08-15T01:18:58.363Z,0
2017-08-15T01:20:08.396Z,0
2017-08-15T01:21:18.922Z,0
2017-08-15T01:22:28.957Z,0
2017-08-15T01:23:38.987Z,0
2017-08-15T01:24:49.332Z,0
2017-08-15T01:26:03.866Z,0
2017-08-15T01:27:16.848Z,0
2017-08-15T01:28:27.195Z,0
2017-08-15T01:29:37.535Z,0
2017-08-15T01:30:47.565Z,0
2017-08-15T01:31:57.924Z,0
2017-08-15T01:33:08.017Z,0
2017-08-15T01:34:18.381Z,0
2017-08-15T01:35:28.719Z,0
2017-08-15T01:36:39.057Z,0
2017-08-15T01:37:49.406Z,0
2017-08-15T01:38:59.797Z,0
2017-08-15T01:40:10.149Z,0
2017-08-15T01:41:20.176Z,0
2017-08-15T01:42:30.533Z,0
2017-08-15T01:43:40.875Z,0
2017-08-15T01:44:50.970Z,0
2017-08-15T01:46:01.321Z,0
2017-08-15T01:47:11.655Z,0
2017-08-15T01:48:21.689Z,0
2017-08-15T01:49:32.029Z,0
2017-08-15T01:50:42.435Z,0
2017-08-15T01:51:52.779Z,0
2017-08-15T01:53:02.810Z,0
2017-08-15T01:54:13.166Z,0
2017-08-15T01:55:24.767Z,0
2017-08-15T01:56:35.159Z,0
2017-08-15T01:57:45.222Z,0
2017-08-15T01:58:57.018Z,0
2017-08-15T02:00:07.355Z,0
2017-08-15T02:01:17.398Z,0
2017-08-15T02:02:27.479Z,0
2017-08-15T02:03:37.835Z,0
2017-08-15T02:04:47.873Z,0
2017-08-15T02:05:58.223Z,0
2017-08-15T02:07:08.577Z,0
2017-08-15T02:08:18.671Z,0
2017-08-15T02:09:29.027Z,0
2017-08-15T02:10:39.356Z,0
2017-08-15T02:11:49.693Z,0
2017-08-15T02:13:00.048Z,0
2017-08-15T02:14:10.499Z,0
2017-08-15T02:15:20.537Z,0
2017-08-15T02:16:32.950Z,0
2017-08-15T02:17:43.307Z,0
2017-08-15T02:18:53.655Z,0
2017-08-15T02:20:03.746Z,0
2017-08-15T02:21:13.783Z,0
2017-08-15T02:22:23.502Z,0
2017-08-15T02:23:33.534Z,0
2017-08-15T02:24:43.893Z,0
2017-08-15T02:25:53.985Z,0
2017-08-15T02:27:04.333Z,0
2017-08-15T02:28:14.683Z,0
2017-08-15T02:29:24.717Z,0
2017-08-15T02:30:35.056Z,0
2017-08-15T02:31:45.138Z,0
2017-08-15T02:32:55.498Z,0
2017-08-15T02:34:05.829Z,0
2017-08-15T02:35:16.204Z,0
2017-08-15T02:36:26.570Z,0
2017-08-15T02:37:36.998Z,0
2017-08-15T02:38:48.655Z,0
2017-08-15T02:39:59.005Z,0
2017-08-15T02:41:09.051Z,0
2017-08-15T02:42:19.411Z,0
2017-08-15T02:43:29.822Z,0
2017-08-15T02:44:40.163Z,0
2017-08-15T02:45:49.885Z,0
2017-08-15T02:46:59.601Z,0
2017-08-15T02:48:10.010Z,0
2017-08-15T02:49:20.420Z,0
2017-08-15T02:50:30.772Z,0
2017-08-15T02:51:41.123Z,0
2017-08-15T02:52:51.462Z,0
2017-08-15T02:54:01.497Z,0
2017-08-15T02:55:11.893Z,0
2017-08-15T02:56:22.241Z,0
2017-08-15T02:57:32.292Z,0
2017-08-15T02:58:42.641Z,0
2017-08-15T02:59:52.990Z,0
2017-08-15T03:01:03.068Z,0
2017-08-15T03:33:10.401Z,28
2017-08-15T03:34:20.426Z,32
2017-08-15T03:35:30.763Z,36
2017-08-15T03:36:40.777Z,44
2017-08-15T03:37:51.105Z,52
2017-08-15T03:39:01.495Z,60
2017-08-15T03:40:11.841Z,64
2017-08-15T03:41:22.186Z,76
2017-08-15T03:42:32.545Z,88
2017-08-15T03:43:42.571Z,100
2017-08-15T03:44:52.961Z,116
2017-08-15T03:46:02.994Z,128
2017-08-15T03:47:13.346Z,144
2017-08-15T03:48:23.372Z,160
2017-08-15T03:49:33.724Z,176
2017-08-15T03:50:43.497Z,196
2017-08-15T03:51:53.844Z,216
2017-08-15T03:53:04.189Z,232
2017-08-15T03:54:14.220Z,252
2017-08-15T03:55:24.278Z,276
2017-08-15T03:56:34.070Z,300
2017-08-15T03:57:44.411Z,324
2017-08-15T03:58:54.772Z,348
2017-08-15T04:00:08.537Z,376
2017-08-15T04:01:18.564Z,400
2017-08-15T04:02:28.974Z,432
2017-08-15T04:03:39.330Z,456
2017-08-15T04:04:49.386Z,488
2017-08-15T04:05:59.124Z,516
2017-08-15T04:07:09.480Z,548
2017-08-15T04:08:20.875Z,580
2017-08-15T04:09:30.894Z,616
2017-08-15T04:10:40.944Z,660
2017-08-15T04:11:51.284Z,704
2017-08-15T04:13:01.630Z,740
2017-08-15T04:14:12.016Z,788
2017-08-15T04:15:22.363Z,820
2017-08-15T04:16:32.703Z,860
2017-08-15T04:17:42.742Z,896
2017-08-15T04:18:52.789Z,936
2017-08-15T04:20:05.791Z,976
2017-08-15T04:21:16.136Z,1064
2017-08-15T04:22:29.385Z,1232
2017-08-15T04:23:39.426Z,1136
2017-08-15T04:24:49.460Z,1140
2017-08-15T04:25:59.874Z,1196
2017-08-15T04:27:09.901Z,1252
2017-08-15T04:28:19.618Z,1484
2017-08-15T04:29:29.650Z,2316
2017-08-15T04:30:39.696Z,2132
2017-08-15T04:31:50.099Z,1492
2017-08-15T04:33:00.442Z,1632
2017-08-15T04:34:10.486Z,2496
2017-08-15T04:35:20.827Z,3296
2017-08-15T04:36:31.171Z,2896
2017-08-15T04:37:41.563Z,1968
2017-08-15T04:38:51.929Z,2856
2017-08-15T04:40:02.267Z,4952
2017-08-15T04:41:12.613Z,5748
2017-08-15T04:42:22.968Z,2252
2017-08-15T04:43:33.064Z,2024
2017-08-15T04:44:43.415Z,2392
2017-08-15T04:45:53.450Z,2136
2017-08-15T04:47:03.791Z,1976
2017-08-15T04:48:14.137Z,1968
2017-08-15T04:49:24.552Z,2164
2017-08-15T04:50:34.579Z,3340
2017-08-15T04:51:44.928Z,3304
2017-08-15T04:52:59.888Z,3156
2017-08-15T04:54:10.256Z,5824
2017-08-15T04:55:20.635Z,8796
2017-08-15T04:56:30.972Z,9656
2017-08-15T04:57:41.318Z,9820
2017-08-15T04:58:51.656Z,10180
2017-08-15T05:00:02.018Z,10324
2017-08-15T05:01:11.799Z,10368
2017-08-15T05:02:22.141Z,10536
2017-08-15T05:03:32.189Z,10496
2017-08-15T05:04:42.540Z,10584
2017-08-15T05:05:52.574Z,10544
2017-08-15T05:07:02.658Z,10576
2017-08-15T05:08:13.039Z,10816
2017-08-15T05:09:23.077Z,11016
2017-08-15T05:10:33.432Z,10892
2017-08-15T05:11:43.159Z,10784
2017-08-15T05:12:53.560Z,11100
2017-08-15T05:14:03.597Z,11284
2017-08-15T05:15:13.964Z,11308
2017-08-15T05:16:24.305Z,11444
2017-08-15T05:17:34.664Z,11340
2017-08-15T05:18:45.058Z,11272
2017-08-15T05:19:55.419Z,11260
2017-08-15T05:21:05.767Z,11212
2017-08-15T05:22:16.106Z,11312
2017-08-15T05:23:26.460Z,11356
2017-08-15T05:24:36.867Z,11288
2017-08-15T05:25:47.215Z,11548
2017-08-15T05:26:57.567Z,11748
2017-08-15T05:28:07.910Z,11616
2017-08-15T05:29:18.259Z,11620
2017-08-15T05:30:28.657Z,11652
2017-08-15T05:31:39.008Z,11516
2017-08-15T05:32:49.371Z,11404
2017-08-15T05:33:59.411Z,11316
2017-08-15T05:35:09.769Z,11420
2017-08-15T05:36:20.190Z,11372
2017-08-15T05:37:30.535Z,11276
2017-08-15T05:38:40.884Z,11288
2017-08-15T05:39:50.917Z,11352
2017-08-15T05:41:00.951Z,11332
2017-08-15T05:42:11.050Z,11256
2017-08-15T05:43:21.407Z,11196
2017-08-15T05:44:30.826Z,11156
2017-08-15T05:45:40.551Z,11104
2017-08-15T05:46:50.263Z,11076
2017-08-15T05:48:00.038Z,10968
2017-08-15T05:49:10.086Z,10716
2017-08-15T05:50:20.439Z,10612
2017-08-15T05:51:30.792Z,10528
2017-08-15T05:52:41.152Z,10392
2017-08-15T05:53:51.546Z,10224
2017-08-15T05:55:01.587Z,8736
2017-08-15T05:56:11.964Z,5208
2017-08-15T05:57:22.333Z,3332
2017-08-15T05:58:32.381Z,3284
2017-08-15T05:59:42.466Z,3276
2017-08-15T06:00:52.827Z,3288
2017-08-15T06:02:03.174Z,3296
2017-08-15T06:03:13.522Z,3304
2017-08-15T06:04:23.886Z,3320
2017-08-15T06:05:33.982Z,3332
2017-08-15T06:06:47.471Z,3352
2017-08-15T06:07:57.516Z,3364
2017-08-15T06:09:07.560Z,3376
2017-08-15T06:10:17.928Z,3384
2017-08-15T06:11:27.715Z,3392
2017-08-15T06:12:37.760Z,3396
2017-08-15T06:13:48.101Z,3404
2017-08-15T06:14:58.469Z,3412
2017-08-15T06:16:08.496Z,3420
2017-08-15T06:17:18.259Z,3428
2017-08-15T06:18:28.618Z,3436
2017-08-15T06:19:38.982Z,3452
2017-08-15T06:20:49.354Z,3460
2017-08-15T06:21:59.392Z,3472
2017-08-15T06:23:09.800Z,3476
2017-08-15T06:24:19.844Z,3492
2017-08-15T06:25:30.207Z,3496
2017-08-15T06:26:40.259Z,3512
2017-08-15T06:27:50.607Z,3536
2017-08-15T06:29:01.019Z,3552
2017-08-15T06:30:11.057Z,3692
2017-08-15T06:31:21.413Z,3944
2017-08-15T06:32:31.437Z,4088
2017-08-15T06:33:41.802Z,4096
2017-08-15T06:34:52.205Z,4080
2017-08-15T06:36:02.561Z,4052
2017-08-15T06:37:12.928Z,4016
2017-08-15T06:38:23.282Z,4000
2017-08-15T06:39:33.635Z,3956
2017-08-15T06:40:44.023Z,3912
2017-08-15T06:41:53.762Z,3788
2017-08-15T06:43:04.103Z,3688
2017-08-15T06:44:14.174Z,3668
2017-08-15T06:45:24.541Z,3656
2017-08-15T06:46:34.937Z,3644
2017-08-15T06:47:44.964Z,3644
2017-08-15T06:48:55.006Z,3652
2017-08-15T06:50:05.387Z,3664
2017-08-15T06:51:15.729Z,3676
2017-08-15T06:52:25.826Z,3684
2017-08-15T06:53:36.179Z,3708
2017-08-15T06:54:46.519Z,3720
2017-08-15T06:55:56.572Z,3740
2017-08-15T06:57:06.631Z,3756
2017-08-15T06:58:16.395Z,3776
2017-08-15T06:59:26.450Z,3796
2017-08-15T07:00:36.804Z,3808
2017-08-15T07:01:47.160Z,3820
2017-08-15T07:02:57.516Z,3852
2017-08-15T07:04:07.598Z,3852
2017-08-15T07:05:17.946Z,3868
2017-08-15T07:06:28.310Z,3880
2017-08-15T07:07:38.665Z,3900
2017-08-15T07:08:48.714Z,3924
2017-08-15T07:09:58.805Z,3932
2017-08-15T07:11:08.538Z,3960
2017-08-15T07:12:18.898Z,3976
2017-08-15T07:13:29.243Z,3996
2017-08-15T07:14:39.596Z,4004
2017-08-15T07:15:53.801Z,4032
2017-08-15T07:17:03.860Z,4056
2017-08-15T07:18:13.280Z,4064
2017-08-15T07:19:23.654Z,4096
2017-08-15T07:20:33.698Z,4112
2017-08-15T07:21:43.814Z,4132
2017-08-15T07:22:53.857Z,4148
2017-08-15T07:24:10.917Z,4168
2017-08-15T07:25:20.992Z,4180
2017-08-15T07:26:29.789Z,4204
2017-08-15T07:27:40.211Z,4228
2017-08-15T07:28:50.266Z,4248
2017-08-15T07:30:00.016Z,4264
2017-08-15T07:31:10.044Z,4292
2017-08-15T07:32:22.791Z,4304
2017-08-15T07:33:33.180Z,4320
2017-08-15T07:34:45.895Z,4344
2017-08-15T07:35:56.242Z,4356
2017-08-15T07:37:05.645Z,4372
2017-08-15T07:38:15.692Z,4380
2017-08-15T07:39:26.100Z,4392
2017-08-15T07:40:35.842Z,4404
2017-08-15T07:41:45.872Z,4436
2017-08-15T07:42:56.233Z,4444
2017-08-15T07:44:06.596Z,4456
2017-08-15T07:45:16.993Z,4476
2017-08-15T07:46:27.354Z,4492
2017-08-15T07:47:37.399Z,4496
2017-08-15T07:48:47.755Z,4504
2017-08-15T07:49:58.109Z,4528
2017-08-15T07:51:08.519Z,4540
2017-08-15T07:52:18.581Z,4568
2017-08-15T07:53:31.204Z,4592
2017-08-15T07:54:41.581Z,4600
2017-08-15T07:55:51.927Z,4624
2017-08-15T07:57:02.021Z,4640
2017-08-15T07:58:12.380Z,4648
2017-08-15T07:59:22.736Z,4652
2017-08-15T08:00:33.115Z,4656
2017-08-15T08:01:43.480Z,4672
2017-08-15T08:02:53.873Z,4688
2017-08-15T08:04:04.245Z,4692
2017-08-15T08:05:14.612Z,4708
2017-08-15T08:06:24.341Z,4728
2017-08-15T08:07:34.719Z,4752
2017-08-15T08:08:44.805Z,4776
2017-08-15T08:09:54.841Z,4788
2017-08-15T08:11:07.855Z,4804
2017-08-15T08:12:18.204Z,4824
2017-08-15T08:13:28.587Z,4824
2017-08-15T08:14:38.702Z,4832
2017-08-15T08:15:49.089Z,4836
2017-08-15T08:17:03.484Z,4852
2017-08-15T08:18:13.856Z,4860
2017-08-15T08:19:24.208Z,4876
2017-08-15T08:20:34.311Z,4888
2017-08-15T08:21:47.118Z,4904
2017-08-15T08:22:57.885Z,4908
2017-08-15T08:24:08.259Z,4920
2017-08-15T08:25:18.331Z,4924
2017-08-15T08:26:30.163Z,4912
2017-08-15T08:27:40.624Z,4952
2017-08-15T08:28:50.994Z,4960
2017-08-15T08:30:01.440Z,4968
2017-08-15T08:31:11.805Z,4968
2017-08-15T08:32:22.230Z,4988
2017-08-15T08:33:32.617Z,5016
2017-08-15T08:34:42.972Z,5016
2017-08-15T08:35:52.724Z,5028
2017-08-15T08:37:03.243Z,5032
2017-08-15T08:38:13.656Z,5036
2017-08-15T08:39:24.016Z,5072
2017-08-15T08:40:34.367Z,5092
2017-08-15T08:41:44.751Z,5084
2017-08-15T08:42:55.139Z,5112
2017-08-15T08:44:05.536Z,5120
2017-08-15T08:45:15.613Z,5140
2017-08-15T08:46:26.016Z,5140
2017-08-15T08:47:41.282Z,5188
2017-08-15T08:48:51.348Z,5184
2017-08-15T08:50:01.806Z,5200
2017-08-15T08:51:12.271Z,5212
2017-08-15T08:52:22.688Z,5224
2017-08-15T08:53:33.072Z,5244
2017-08-15T08:54:43.446Z,5268
2017-08-15T08:55:53.585Z,5276
2017-08-15T08:57:03.636Z,5300
2017-08-15T08:58:14.047Z,5300
2017-08-15T08:59:24.140Z,5320
2017-08-15T09:00:34.504Z,5336
2017-08-15T09:01:44.950Z,5356
2017-08-15T09:02:55.383Z,5348
2017-08-15T09:04:05.109Z,5376
2017-08-15T09:05:16.068Z,5392
2017-08-15T09:06:26.529Z,5416
2017-08-15T09:07:37.002Z,5428
2017-08-15T09:08:47.044Z,5440
2017-08-15T09:09:57.444Z,5452
2017-08-15T09:11:07.797Z,5464
2017-08-15T09:12:18.194Z,5492
2017-08-15T09:13:28.663Z,5512
2017-08-15T09:14:39.022Z,5508
2017-08-15T09:15:48.770Z,5532
2017-08-15T09:16:58.847Z,5540
2017-08-15T09:18:09.246Z,5556
2017-08-15T09:19:22.927Z,5576
2017-08-15T09:20:33.294Z,5580
2017-08-15T09:21:43.691Z,5620
2017-08-15T09:22:54.049Z,5584
2017-08-15T09:24:04.132Z,5620
2017-08-15T09:25:13.961Z,5632
2017-08-15T09:26:26.436Z,5668
2017-08-15T09:27:36.495Z,5672
2017-08-15T09:28:46.916Z,5676
2017-08-15T09:29:57.283Z,5684
2017-08-15T09:31:07.724Z,5696
2017-08-15T09:32:18.128Z,5712
2017-08-15T09:33:28.880Z,5752
2017-08-15T09:34:39.268Z,5756
2017-08-15T09:35:51.177Z,5752
2017-08-15T09:37:01.629Z,5804
2017-08-15T09:38:12.025Z,5808
2017-08-15T09:39:22.093Z,5812
2017-08-15T09:40:32.218Z,5812
2017-08-15T09:41:42.323Z,5832
2017-08-15T09:42:52.521Z,5848
2017-08-15T09:44:02.884Z,5864
2017-08-15T09:45:13.257Z,5896
2017-08-15T09:46:23.670Z,5900
2017-08-15T09:47:33.795Z,5900
2017-08-15T09:48:44.270Z,5916
2017-08-15T09:49:54.395Z,5952
2017-08-15T09:51:04.220Z,5968
2017-08-15T09:52:13.952Z,5980
2017-08-15T09:53:24.077Z,5972
2017-08-15T09:54:34.224Z,5988
2017-08-15T09:55:44.648Z,6004
2017-08-15T09:56:55.021Z,6016
2017-08-15T09:58:05.094Z,6032
2017-08-15T09:59:15.464Z,6036
2017-08-15T10:00:25.890Z,6072
2017-08-15T10:01:36.253Z,6080
2017-08-15T10:02:46.612Z,6072
2017-08-15T10:03:56.973Z,6076
2017-08-15T10:05:07.365Z,6072
2017-08-15T10:06:17.770Z,6124
2017-08-15T10:07:28.124Z,6140
2017-08-15T10:08:38.167Z,6132
2017-08-15T10:09:48.554Z,6176
2017-08-15T10:10:58.969Z,6176
2017-08-15T10:12:09.387Z,6180
2017-08-15T10:13:19.752Z,6208
2017-08-15T10:14:29.914Z,6236
2017-08-15T10:15:40.266Z,6224
2017-08-15T10:16:50.632Z,6224
2017-08-15T10:18:00.722Z,6256
2017-08-15T10:19:10.451Z,6260
2017-08-15T10:20:20.893Z,6220
2017-08-15T10:21:31.324Z,6264
2017-08-15T10:22:41.709Z,6288
2017-08-15T10:23:52.152Z,6316
2017-08-15T10:25:02.221Z,6316
2017-08-15T10:26:13.595Z,6344
2017-08-15T10:27:24.620Z,6352
2017-08-15T10:28:35.010Z,6360
2017-08-15T10:29:45.436Z,6384
2017-08-15T10:30:59.035Z,6376
2017-08-15T10:32:09.411Z,6352
2017-08-15T10:33:19.800Z,6412
2017-08-15T10:34:29.890Z,6408
2017-08-15T10:35:39.684Z,6432
2017-08-15T10:36:49.743Z,6428
2017-08-15T10:38:00.121Z,6464
2017-08-15T10:39:10.176Z,6472
2017-08-15T10:40:20.540Z,6468
2017-08-15T10:41:30.721Z,6484
2017-08-15T10:42:41.087Z,6484
2017-08-15T10:43:51.507Z,6500
2017-08-15T10:45:01.865Z,6532
2017-08-15T10:46:12.250Z,6548
2017-08-15T10:47:22.548Z,6572
2017-08-15T10:48:32.917Z,6568
2017-08-15T10:49:43.005Z,6520
2017-08-15T10:50:53.661Z,6564
2017-08-15T10:52:03.737Z,6584
2017-08-15T10:53:14.163Z,6604
2017-08-15T10:54:24.262Z,6628
2017-08-15T10:55:34.341Z,6640
2017-08-15T10:56:44.782Z,6664
2017-08-15T10:57:55.150Z,6660
2017-08-15T10:59:06.441Z,6676
2017-08-15T11:00:16.496Z,6684
2017-08-15T11:01:26.862Z,6680
2017-08-15T11:02:35.978Z,6692
2017-08-15T11:03:46.363Z,6728
2017-08-15T11:04:56.463Z,6740
2017-08-15T11:06:06.506Z,6784
2017-08-15T11:07:16.869Z,6796
2017-08-15T11:08:27.315Z,6800
2017-08-15T11:09:37.740Z,6840
2017-08-15T11:10:48.177Z,6840
2017-08-15T11:11:58.239Z,6868
2017-08-15T11:13:08.289Z,6880
2017-08-15T11:14:18.668Z,6880
2017-08-15T11:15:29.080Z,6920
2017-08-15T11:16:39.175Z,6912
2017-08-15T11:17:49.557Z,6928
2017-08-15T11:18:59.911Z,6924
2017-08-15T11:20:10.286Z,6972
2017-08-15T11:21:20.661Z,6988
2017-08-15T11:22:31.071Z,6996
2017-08-15T11:23:41.439Z,7004
2017-08-15T11:24:51.796Z,7028
2017-08-15T11:26:02.165Z,7052
2017-08-15T11:27:12.233Z,7060
2017-08-15T11:28:22.346Z,7048
2017-08-15T11:29:32.411Z,7036
2017-08-15T11:30:42.464Z,7068
2017-08-15T11:31:52.193Z,7100
2017-08-15T11:33:02.543Z,7112
2017-08-15T11:34:12.637Z,7124
2017-08-15T11:35:25.667Z,7112
2017-08-15T11:36:35.718Z,7124
2017-08-15T11:37:48.027Z,7120
2017-08-15T11:38:58.433Z,7148
2017-08-15T11:40:08.528Z,7148
2017-08-15T11:41:18.894Z,7164
2017-08-15T11:42:28.936Z,7164
2017-08-15T11:43:43.349Z,7168
2017-08-15T11:44:53.750Z,7192
2017-08-15T11:46:04.182Z,7196
2017-08-15T11:47:14.262Z,7208
2017-08-15T11:48:24.642Z,7204
2017-08-15T11:49:34.690Z,7196
2017-08-15T11:50:45.059Z,7184
2017-08-15T11:51:54.886Z,7196
2017-08-15T11:53:05.259Z,7212
2017-08-15T11:54:15.607Z,7208
2017-08-15T11:55:31.123Z,7232
2017-08-15T11:56:41.523Z,7228
2017-08-15T11:57:51.929Z,7240
2017-08-15T11:59:01.708Z,7248
2017-08-15T12:00:12.068Z,7240
2017-08-15T12:01:22.437Z,7248
2017-08-15T12:02:32.815Z,7240
2017-08-15T12:03:43.219Z,7212
2017-08-15T12:04:53.592Z,7232
2017-08-15T12:06:06.409Z,7240
2017-08-15T12:07:16.774Z,7284
2017-08-15T12:08:27.118Z,7276
2017-08-15T12:09:37.507Z,7272
2017-08-15T12:10:47.607Z,7304
2017-08-15T12:11:57.982Z,7332
2017-08-15T12:13:11.146Z,7336
2017-08-15T12:14:21.503Z,7312
2017-08-15T12:15:31.302Z,7332
2017-08-15T12:16:41.697Z,7364
2017-08-15T12:17:52.089Z,7324
2017-08-15T12:19:02.136Z,7356
2017-08-15T12:20:12.518Z,7336
2017-08-15T12:21:22.977Z,7320
2017-08-15T12:22:36.706Z,7360
2017-08-15T12:23:47.121Z,7360
2017-08-15T12:24:56.569Z,7328
2017-08-15T12:26:06.934Z,7316
2017-08-15T12:27:17.349Z,7296
2017-08-15T12:28:27.735Z,7304
2017-08-15T12:29:40.604Z,7260
2017-08-15T12:30:50.657Z,7276
2017-08-15T12:32:01.065Z,7236
2017-08-15T12:33:11.488Z,7224
2017-08-15T12:34:21.549Z,7232
2017-08-15T12:35:31.951Z,7232
2017-08-15T12:36:42.397Z,7216
2017-08-15T12:37:52.814Z,7204
2017-08-15T12:39:03.236Z,7200
2017-08-15T12:40:13.689Z,7152
2017-08-15T12:41:24.111Z,7132
2017-08-15T12:42:34.507Z,7164
2017-08-15T12:43:44.860Z,7116
2017-08-15T12:44:55.288Z,7124
2017-08-15T12:46:05.666Z,7092
2017-08-15T12:47:15.729Z,7044
2017-08-15T12:48:26.095Z,7052
2017-08-15T12:49:36.539Z,7024
2017-08-15T12:50:46.999Z,7024
2017-08-15T12:51:58.391Z,7012
2017-08-15T12:53:08.834Z,6964
2017-08-15T12:54:19.208Z,6968
2017-08-15T12:55:29.581Z,6964
2017-08-15T12:56:40.021Z,6968
2017-08-15T12:57:50.135Z,6952
2017-08-15T12:59:00.511Z,6940
2017-08-15T13:00:10.567Z,6944
2017-08-15T13:01:20.941Z,6928
2017-08-15T13:02:35.453Z,6920
2017-08-15T13:03:45.847Z,6932
2017-08-15T13:04:56.272Z,6896
2017-08-15T13:06:06.711Z,6872
2017-08-15T13:07:16.788Z,6852
2017-08-15T13:08:27.210Z,6828
2017-08-15T13:09:37.634Z,6800
2017-08-15T13:10:47.704Z,6784
2017-08-15T13:11:58.125Z,6744
2017-08-15T13:13:08.509Z,6732
2017-08-15T13:14:18.659Z,6764
2017-08-15T13:15:29.086Z,6768
2017-08-15T13:16:40.639Z,6720
2017-08-15T13:17:54.680Z,6732
2017-08-15T13:19:05.105Z,6720
2017-08-15T13:20:15.586Z,6684
2017-08-15T13:21:27.591Z,6660
2017-08-15T13:22:37.960Z,6640
2017-08-15T13:23:48.008Z,6620
2017-08-15T13:24:58.084Z,6612
2017-08-15T13:26:08.499Z,6588
2017-08-15T13:27:18.569Z,6560
2017-08-15T13:28:28.629Z,6520
2017-08-15T13:29:38.374Z,6488
2017-08-15T13:30:48.420Z,6484
2017-08-15T13:31:58.875Z,6508
2017-08-15T13:33:13.374Z,6460
2017-08-15T13:34:23.746Z,6456
2017-08-15T13:35:33.806Z,6460
2017-08-15T13:36:44.197Z,6452
2017-08-15T13:37:56.942Z,6444
2017-08-15T13:39:07.058Z,6412
2017-08-15T13:40:17.486Z,6400
2017-08-15T13:41:27.516Z,6360
2017-08-15T13:42:37.927Z,6360
2017-08-15T13:43:48.370Z,6352
2017-08-15T13:44:58.752Z,6332
2017-08-15T13:46:11.647Z,6324
2017-08-15T13:47:21.418Z,6296
2017-08-15T13:48:31.816Z,6276
2017-08-15T13:49:42.264Z,6236
2017-08-15T13:50:53.170Z,6216
2017-08-15T13:52:03.238Z,6224
2017-08-15T13:53:13.344Z,6184
2017-08-15T13:54:23.819Z,6168
2017-08-15T13:55:34.275Z,6144
2017-08-15T13:56:44.665Z,6132
2017-08-15T13:57:54.773Z,6112
2017-08-15T13:59:05.129Z,6076
2017-08-15T14:00:15.548Z,6060
2017-08-15T14:01:25.339Z,6040
2017-08-15T14:02:35.726Z,6008
2017-08-15T14:03:46.080Z,5980
2017-08-15T14:04:56.498Z,5956
2017-08-15T14:06:06.845Z,5956
2017-08-15T14:07:19.555Z,5932
2017-08-15T14:08:29.617Z,5904
2017-08-15T14:09:40.072Z,5888
2017-08-15T14:10:50.505Z,5840
2017-08-15T14:12:00.541Z,5828
2017-08-15T14:13:10.702Z,5804
2017-08-15T14:14:21.105Z,5776
2017-08-15T14:15:31.169Z,5788
2017-08-15T14:16:41.548Z,5784
2017-08-15T14:17:51.925Z,5744
2017-08-15T14:19:02.396Z,5704
2017-08-15T14:20:12.461Z,5688
2017-08-15T14:21:22.495Z,5672
2017-08-15T14:22:32.870Z,5664
2017-08-15T14:23:42.933Z,5632
2017-08-15T14:24:53.355Z,5568
2017-08-15T14:26:03.407Z,5572
2017-08-15T14:27:13.883Z,5568
2017-08-15T14:28:24.293Z,5524
2017-08-15T14:29:34.413Z,5496
2017-08-15T14:30:44.885Z,5496
2017-08-15T14:31:55.308Z,5480
2017-08-15T14:33:05.753Z,5432
2017-08-15T14:34:16.163Z,5428
2017-08-15T14:35:26.553Z,5388
2017-08-15T14:36:37.024Z,5368
2017-08-15T14:37:47.391Z,5320
2017-08-15T14:38:57.774Z,5336
2017-08-15T14:40:07.839Z,5300
2017-08-15T14:41:18.274Z,5288
2017-08-15T14:42:28.405Z,5256
2017-08-15T14:43:38.804Z,5244
2017-08-15T14:44:50.367Z,5236
2017-08-15T14:46:00.733Z,5196
2017-08-15T14:47:11.100Z,5180
2017-08-15T14:48:21.528Z,5156
2017-08-15T14:49:32.337Z,5144
2017-08-15T14:50:42.714Z,5120
2017-08-15T14:51:53.649Z,5088
2017-08-15T14:53:04.023Z,5056
2017-08-15T14:54:14.141Z,5000
2017-08-15T14:55:24.501Z,4964
2017-08-15T14:56:34.904Z,4940
2017-08-15T14:57:45.314Z,4932
2017-08-15T14:58:55.715Z,4912
2017-08-15T15:00:05.878Z,4892
2017-08-15T15:01:16.306Z,4868
2017-08-15T15:02:26.671Z,4832
2017-08-15T15:03:37.060Z,4800
2017-08-15T15:04:46.789Z,4768
2017-08-15T15:05:57.191Z,4740
2017-08-15T15:07:07.559Z,4708
2017-08-15T15:08:18.168Z,4688
2017-08-15T15:09:28.205Z,4664
2017-08-15T15:10:38.242Z,4652
2017-08-15T15:11:48.676Z,4636
2017-08-15T15:12:59.066Z,4608
2017-08-15T15:14:09.171Z,4588
2017-08-15T15:15:19.548Z,4576
2017-08-15T15:16:29.909Z,4560
2017-08-15T15:17:40.027Z,4532
2017-08-15T15:18:50.098Z,4484
2017-08-15T15:20:00.504Z,4464
2017-08-15T15:21:10.875Z,4444
2017-08-15T15:22:20.928Z,4416
2017-08-15T15:23:31.342Z,4380
2017-08-15T15:24:41.704Z,4364
2017-08-15T15:25:52.075Z,4328
2017-08-15T15:27:02.463Z,4292
2017-08-15T15:28:12.840Z,4268
2017-08-15T15:29:24.698Z,4240
2017-08-15T15:30:35.374Z,4228
2017-08-15T15:31:45.769Z,4180
2017-08-15T15:32:56.154Z,4168
2017-08-15T15:34:06.526Z,4140
2017-08-15T15:35:16.948Z,4112
2017-08-15T15:36:27.010Z,4088
2017-08-15T15:37:37.082Z,4068
2017-08-15T15:38:47.454Z,4036
2017-08-15T15:39:57.818Z,4024
2017-08-15T15:41:07.927Z,3984
2017-08-15T15:42:18.284Z,3952
2017-08-15T15:43:28.370Z,3916
2017-08-15T15:44:38.442Z,3896
2017-08-15T15:45:48.803Z,3876
2017-08-15T15:46:59.221Z,3844
2017-08-15T15:48:09.287Z,3824
2017-08-15T15:49:19.649Z,3804
2017-08-15T15:50:29.696Z,3776
2017-08-15T15:51:40.039Z,3748
2017-08-15T15:52:50.459Z,3724
2017-08-15T15:54:00.794Z,3688
2017-08-15T15:55:10.860Z,3664
2017-08-15T15:56:21.217Z,3648
2017-08-15T15:57:31.581Z,3616
2017-08-15T15:58:41.697Z,3584
2017-08-15T15:59:51.741Z,3536
2017-08-15T16:01:02.110Z,3524
2017-08-15T16:02:12.160Z,3488
2017-08-15T16:03:22.534Z,3452
2017-08-15T16:04:35.370Z,3424
2017-08-15T16:05:45.716Z,3384
2017-08-15T16:06:55.775Z,3348
2017-08-15T16:08:06.130Z,3324
2017-08-15T16:09:16.505Z,3308
2017-08-15T16:10:27.408Z,3276
2017-08-15T16:11:37.785Z,3252
2017-08-15T16:12:49.927Z,3228
2017-08-15T16:14:00.286Z,3196
2017-08-15T16:15:10.640Z,3168
2017-08-15T16:16:21.041Z,3144
2017-08-15T16:17:30.766Z,3108
2017-08-15T16:18:41.113Z,3076
2017-08-15T16:19:51.176Z,3056
2017-08-15T16:21:01.539Z,3016
2017-08-15T16:22:11.965Z,2988
2017-08-15T16:23:22.333Z,2944
2017-08-15T16:24:32.682Z,2908
2017-08-15T16:25:43.059Z,2876
2017-08-15T16:26:53.455Z,2832